Flight Track Log - Related Links

Times and Time Zones

All times are in EDT time to prevent confusion due to time zone crossing. See the FLG3617 flight status page for this flight to view local times or setup timezone preferences in your user account.

Time Position Orientation Groundspeed Altitude Reporting Facility
EDT Latitude Longitude Course Direction KTS MPH feet Rate Location/Type
02:02PM 42.1994 -83.3581 North 155 178 1,500  Level Cleveland Center
02:04PM 42.1975 -83.4392 268° West 213 245 4,000 1,119 Climbing Cleveland Center
02:05PM 42.2019 -83.5153 275° West 275 316 4,000  Level Cleveland Center
02:06PM 42.4947 -83.3500 North  Level FlightAware Approximate
02:06PM 42.2714 -83.5633 333° Northwest 256 295 4,000  Level Cleveland Center
02:07PM 42.5683 -83.3500 North  Level FlightAware Approximate
02:07PM 42.3333 -83.5914 341° North 250 288 4,000  Level Cleveland Center
02:08PM 42.6420 -83.3500 North  Level FlightAware Approximate
02:08PM 42.4106 -83.5894 North 254 292 4,000  Level Cleveland Center
02:09PM 42.4756 -83.5672 14° North 259 298 4,000 513 Level Cleveland Center
02:10PM 42.5475 -83.5342 19° North 271 312 5,000 984 Climbing Cleveland Center
02:12PM 42.6637 -83.5975 338° Northwest  Level Estimated
02:19PM 43.1419 -83.8609 338° Northwest  Level Estimated
02:20PM 43.2102 -83.8989 338° Northwest  Level Estimated
02:21PM 43.2784 -83.9370 338° Northwest  Level Estimated
02:22PM 43.3467 -83.9751 338° Northwest  Level Estimated
02:23PM 43.4149 -84.0133 338° Northwest  Level Estimated
02:24PM 43.4831 -84.0516 338° Northwest  Level Estimated
02:25PM 43.5329 -84.0796 338° Northwest  Level Estimated
02:26PM 43.5329 -84.0796 166° South  Level Estimated
02:27PM 43.5329 -84.0796 166° South  Level Estimated
02:28PM 43.5329 -84.0796 166° South  Level Estimated
02:29PM 43.5329 -84.0796 166° South  Level Estimated
02:30PM 43.5329 -84.0796 166° South  Level Estimated
02:31PM 43.5329 -84.0796 166° South  Level Estimated

Login

Don't have an account? Register now (free) for customized features, flight alerts, and more!